Time;durP1;ratioP1;P1;durP2;ratioP2;P2;SDS_P1;SDS_P2;PMS_P1;PMS_P2;Temp;Humidity;BMP_temperature;BMP_pressure;BME280_temperature;BME280_humidity;BME280_pressure;Samples;Min_cycle;Max_cycle;Signal;HPM_P1;HPM_P2
2022/05/28 00:01:11;;;;;;;6.22;2.25;;;;;;;15.83;59.61;99139.16;5085915;28;20113;-74
2022/05/28 00:03:38;;;;;;;3.78;2.00;;;;;;;15.84;60.24;99148.00;5085771;28;20324;-74
2022/05/28 00:06:10;;;;;;;3.00;1.55;;;;;;;15.82;61.06;99147.28;5085677;28;20060;-74
2022/05/28 00:08:37;;;;;;;2.20;1.50;;;;;;;15.85;59.78;99147.88;5085808;28;20056;-74
2022/05/28 00:11:14;;;;;;;2.30;1.60;;;;;;;15.30;62.03;99087.28;5085484;28;20113;-74
2022/05/28 00:13:41;;;;;;;2.83;1.90;;;;;;;15.81;60.70;99158.94;5085955;28;20308;-74
2022/05/28 00:16:09;;;;;;;2.70;1.60;;;;;;;15.87;60.40;99150.44;5085586;28;20112;-74
2022/05/28 00:18:38;;;;;;;2.97;2.22;;;;;;;15.91;60.18;99154.56;5085287;28;20141;-74
2022/05/28 00:21:05;;;;;;;2.40;1.52;;;;;;;15.87;60.53;99156.63;5085293;28;20060;-74
2022/05/28 00:23:33;;;;;;;3.30;1.73;;;;;;;15.83;61.15;99143.63;5085344;28;20056;-74
2022/05/28 00:26:00;;;;;;;2.78;1.55;;;;;;;15.80;61.06;99151.91;5085412;28;20098;-74
2022/05/28 00:28:29;;;;;;;2.38;1.60;;;;;;;15.77;61.49;99147.66;5089136;28;20109;-74
2022/05/28 00:30:56;;;;;;;3.72;1.58;;;;;;;15.48;61.76;99106.34;5089941;28;20082;-74
2022/05/28 00:33:24;;;;;;;3.67;1.70;;;;;;;15.74;61.51;99147.03;5089695;28;20052;-74
2022/05/28 00:35:51;;;;;;;3.20;1.92;;;;;;;15.73;61.63;99142.66;5089159;28;20174;-74
2022/05/28 00:38:19;;;;;;;2.30;1.60;;;;;;;15.71;61.83;99142.78;5088149;28;20061;-74
2022/05/28 00:40:46;;;;;;;2.22;1.60;;;;;;;15.69;61.04;99153.59;5089463;28;20048;-74
2022/05/28 00:43:14;;;;;;;3.33;1.73;;;;;;;15.68;61.87;99148.38;5089198;28;20146;-74
2022/05/28 00:45:44;;;;;;;2.20;1.60;;;;;;;15.51;61.62;99108.78;5089318;28;20056;-74
2022/05/28 00:48:13;;;;;;;3.67;1.63;;;;;;;15.68;61.02;99133.19;5089413;28;20052;-74
2022/05/28 00:50:41;;;;;;;3.03;1.70;;;;;;;15.68;61.24;99135.03;5089265;28;20102;-74
2022/05/28 00:53:09;;;;;;;3.10;1.80;;;;;;;15.65;61.48;99128.09;5089028;28;20056;-74
2022/05/28 00:55:37;;;;;;;5.47;1.80;;;;;;;15.64;61.48;99129.03;5089161;28;20342;-74
2022/05/28 00:58:08;;;;;;;2.75;2.00;;;;;;;15.65;61.65;99129.94;5089434;28;20102;-74
2022/05/28 01:00:37;;;;;;;3.75;1.73;;;;;;;15.64;61.33;99131.72;5088256;28;20264;-74
2022/05/28 01:03:11;;;;;;;3.70;2.00;;;;;;;15.63;62.59;99127.34;5088941;28;20305;-74
2022/05/28 01:05:45;;;;;;;2.70;1.83;;;;;;;15.60;61.96;99124.06;5088825;28;20052;-74
2022/05/28 01:08:15;;;;;;;;;;;;;;;15.52;63.17;99124.66;5088485;28;20260;-74
2022/05/28 01:10:49;;;;;;;2.38;1.58;;;;;;;15.51;61.86;99125.66;5088945;28;19958;-74
2022/05/28 01:13:22;;;;;;;2.92;2.13;;;;;;;15.52;62.16;99118.47;5088853;28;20036;-74
2022/05/28 01:15:54;;;;;;;2.60;1.92;;;;;;;15.51;62.50;99117.63;5088900;28;20061;-74
2022/05/28 01:18:29;;;;;;;2.03;1.52;;;;;;;15.26;62.59;99077.81;5087791;28;20118;-74
2022/05/28 01:21:02;;;;;;;2.88;1.88;;;;;;;15.45;62.78;99112.78;5088768;28;20110;-74
2022/05/28 01:23:41;;;;;;;2.92;2.10;;;;;;;15.47;62.57;99104.63;5088417;28;20061;-74
2022/05/28 01:26:18;;;;;;;3.00;1.83;;;;;;;15.45;63.11;99110.09;5088326;28;20094;-74
2022/05/28 01:28:52;;;;;;;2.60;1.70;;;;;;;15.50;62.96;99107.06;5088279;28;20072;-74
2022/05/28 01:31:22;;;;;;;4.93;2.20;;;;;;;15.48;62.47;99117.88;5088176;28;20320;-73
2022/05/28 01:33:50;;;;;;;5.47;1.88;;;;;;;15.50;61.93;99115.94;5088201;28;20110;-74
2022/05/28 01:36:19;;;;;;;2.85;1.70;;;;;;;15.48;62.01;99103.66;5088454;28;20053;-74
2022/05/28 01:38:48;;;;;;;3.47;2.03;;;;;;;15.46;62.36;99109.13;5087728;28;20248;-73
2022/05/28 01:41:16;;;;;;;2.33;1.40;;;;;;;15.45;62.47;99102.09;5087259;28;20062;-74
2022/05/28 01:43:48;;;;;;;3.75;1.48;;;;;;;15.23;62.14;99054.88;5088173;28;20083;-74
2022/05/28 01:46:19;;;;;;;3.28;2.08;;;;;;;15.50;62.50;99091.91;5087646;28;20060;-74
2022/05/28 01:48:48;;;;;;;2.83;1.70;;;;;;;12.39;61.21;98580.47;5088178;28;20227;-74
2022/05/28 01:51:17;;;;;;;2.63;1.80;;;;;;;15.52;61.84;99091.78;5088172;28;20308;-73
2022/05/28 01:56:32;;;;;;;4.18;1.70;;;;;;;15.14;62.42;99036.06;5088182;28;20040;-74
2022/05/28 01:59:01;;;;;;;2.42;1.77;;;;;;;15.48;62.01;99106.34;5087927;28;20057;-74
2022/05/28 02:01:28;;;;;;;2.55;1.63;;;;;;;15.45;62.00;99077.22;5087557;28;20060;-74
2022/05/28 02:04:01;;;;;;;2.80;1.90;;;;;;;15.42;62.18;99123.69;5087605;28;20114;-74
2022/05/28 02:06:28;;;;;;;2.55;1.80;;;;;;;15.20;62.49;99028.44;5086864;28;20362;-74
2022/05/28 02:08:56;;;;;;;2.60;1.95;;;;;;;14.62;62.07;98952.13;5087843;28;20061;-74
2022/05/28 02:11:26;;;;;;;3.28;2.13;;;;;;;15.39;62.05;99074.06;5087801;28;20228;-74
2022/05/28 02:14:19;;;;;;;2.97;2.05;;;;;;;15.39;63.41;99065.19;5087742;28;20198;-74
2022/05/28 02:16:53;;;;;;;3.10;2.13;;;;;;;15.14;62.74;99028.91;5086790;28;20265;-75
2022/05/28 02:19:31;;;;;;;2.90;2.00;;;;;;;15.37;63.37;99069.81;5087496;28;20053;-74
2022/05/28 02:22:03;;;;;;;2.65;1.90;;;;;;;15.37;63.12;99069.81;5087313;28;20060;-75
2022/05/28 02:24:37;;;;;;;3.30;2.20;;;;;;;15.36;62.83;99063.63;5087587;28;20060;-74
2022/05/28 02:27:12;;;;;;;2.88;2.13;;;;;;;15.34;62.74;99067.38;5086278;28;20106;-74
2022/05/28 02:29:42;;;;;;;2.85;2.00;;;;;;;15.34;63.27;99057.53;5087346;28;20094;-74
2022/05/28 02:32:15;;;;;;;3.03;2.30;;;;;;;15.36;63.04;99052.94;5086899;28;20114;-75
2022/05/28 02:34:45;;;;;;;2.90;1.75;;;;;;;15.36;62.35;99046.75;5087468;28;20070;-74
2022/05/28 02:37:14;;;;;;;2.92;2.05;;;;;;;15.34;62.82;99070.06;5087260;28;20059;-74
2022/05/28 02:39:42;;;;;;;3.95;2.65;;;;;;;15.36;62.44;99047.59;5087068;28;20052;-75
2022/05/28 02:42:09;;;;;;;5.68;2.20;;;;;;;15.36;63.38;99047.59;5087184;28;20056;-74
2022/05/28 02:44:36;;;;;;;3.47;2.10;;;;;;;15.14;62.80;98998.69;5086798;28;20056;-74
2022/05/28 02:47:06;;;;;;;2.78;2.05;;;;;;;15.40;63.32;99042.84;5086750;28;20052;-75
2022/05/28 02:49:34;;;;;;;2.90;2.05;;;;;;;15.46;62.48;99047.72;5086133;28;20057;-75
2022/05/28 02:52:02;;;;;;;3.55;2.30;;;;;;;15.46;62.13;99041.53;5087408;28;20263;-74
2022/05/28 02:54:30;;;;;;;2.78;1.88;;;;;;;15.44;62.86;99041.66;5090365;28;20083;-74
2022/05/28 02:56:57;;;;;;;2.85;2.13;;;;;;;14.72;62.36;98916.59;5090943;28;20060;-75
2022/05/28 02:59:25;;;;;;;3.88;2.80;;;;;;;15.13;62.75;98992.50;5092312;28;20086;-75
2022/05/28 03:01:52;;;;;;;4.15;2.22;;;;;;;15.32;62.91;99038.13;5090124;28;20331;-75
2022/05/28 03:04:22;;;;;;;3.10;2.30;;;;;;;15.36;63.23;99036.06;5087832;28;20189;-75
2022/05/28 03:06:52;;;;;;;3.22;2.10;;;;;;;15.45;62.48;99046.00;5088903;28;20040;-75
2022/05/28 03:09:20;;;;;;;3.50;2.58;;;;;;;15.22;62.84;98999.78;5088241;28;20090;-72
2022/05/28 03:11:47;;;;;;;5.13;2.70;;;;;;;15.48;62.44;99031.56;5087184;28;20378;-75
2022/05/28 03:14:17;;;;;;;3.40;2.58;;;;;;;15.47;62.26;99036.06;5086742;28;20114;-74
2022/05/28 03:16:44;;;;;;;3.63;2.20;;;;;;;15.45;62.76;99037.16;5086393;28;20094;-74
2022/05/28 03:19:12;;;;;;;2.78;2.10;;;;;;;15.42;62.84;99035.56;5086451;28;20102;-75
2022/05/28 03:21:41;;;;;;;3.45;2.35;;;;;;;15.38;63.27;99034.97;5085294;28;20049;-74
2022/05/28 03:24:09;;;;;;;4.32;3.10;;;;;;;15.45;63.09;99032.66;5085320;28;20044;-74
2022/05/28 03:26:37;;;;;;;3.28;2.35;;;;;;;15.46;63.48;99036.19;5086312;28;20048;-74
2022/05/28 03:29:05;;;;;;;3.65;2.55;;;;;;;14.76;62.99;98906.53;5086253;28;20316;-74
2022/05/28 03:31:33;;;;;;;3.28;2.55;;;;;;;15.28;62.84;98995.78;5086195;28;20111;-75
2022/05/28 03:34:01;;;;;;;3.88;2.85;;;;;;;15.27;63.13;98994.09;5086429;28;20059;-75
2022/05/28 03:36:30;;;;;;;3.28;2.60;;;;;;;15.51;63.70;99044.66;5085200;28;20047;-75
2022/05/28 03:38:59;;;;;;;4.35;2.97;;;;;;;15.47;63.63;99038.72;5086395;28;20060;-75
2022/05/28 03:41:28;;;;;;;3.35;2.55;;;;;;;14.81;63.13;98931.03;5086502;28;20319;-75
2022/05/28 03:43:56;;;;;;;3.58;2.70;;;;;;;15.55;63.24;99046.97;5085998;28;20060;-75
2022/05/28 03:46:26;;;;;;;3.92;3.30;;;;;;;15.55;63.81;99040.78;5084843;28;20067;-75
2022/05/28 03:48:58;;;;;;;3.58;2.70;;;;;;;15.54;63.75;99055.97;5085948;28;20040;-75
2022/05/28 03:51:25;;;;;;;3.63;2.97;;;;;;;15.52;64.02;99049.03;5086294;28;20056;-75
2022/05/28 03:53:55;;;;;;;4.18;2.90;;;;;;;15.57;64.17;99071.75;5084827;28;20048;-75
2022/05/28 03:56:33;;;;;;;4.45;2.83;;;;;;;15.56;65.25;99054.00;5085244;28;20064;-74
2022/05/28 03:59:00;;;;;;;3.38;2.50;;;;;;;15.50;64.11;99054.50;5085869;28;20110;-75
2022/05/28 04:01:28;;;;;;;2.80;2.10;;;;;;;15.45;63.50;99050.50;5085629;28;20052;-74
2022/05/28 04:03:57;;;;;;;3.08;2.38;;;;;;;15.36;63.87;99062.78;5085778;28;20041;-75
2022/05/28 04:06:25;;;;;;;3.65;2.42;;;;;;;15.34;63.31;99057.53;5085572;28;20041;-75
2022/05/28 04:08:52;;;;;;;3.55;2.00;;;;;;;15.32;63.22;99067.50;5085507;28;20052;-75
2022/05/28 04:11:20;;;;;;;3.28;2.00;;;;;;;14.29;63.30;98926.19;5085694;28;20060;-76
2022/05/28 04:13:49;;;;;;;3.08;2.00;;;;;;;14.99;63.62;99011.44;5085947;28;20052;-74
2022/05/28 04:16:17;;;;;;;2.88;2.05;;;;;;;15.24;62.76;99047.72;5085665;28;20040;-75
2022/05/28 04:18:45;;;;;;;3.45;2.05;;;;;;;15.22;63.04;99055.00;5085872;28;20227;-75
2022/05/28 04:21:12;;;;;;;3.10;2.05;;;;;;;15.17;62.88;99068.72;5085708;28;20066;-75
2022/05/28 04:23:39;;;;;;;3.50;2.35;;;;;;;15.14;63.35;99078.78;5084386;28;20044;-75
2022/05/28 04:26:07;;;;;;;3.85;2.50;;;;;;;14.88;62.85;99046.13;5085662;28;20082;-75
2022/05/28 04:28:34;;;;;;;3.33;2.25;;;;;;;14.59;63.26;99013.66;5085667;28;20060;-75
2022/05/28 04:31:02;;;;;;;4.45;2.17;;;;;;;15.04;63.06;99079.50;5085566;28;20086;-74
2022/05/28 04:33:30;;;;;;;5.47;2.47;;;;;;;15.05;63.00;99081.19;5085582;28;20074;-75
2022/05/28 04:35:57;;;;;;;2.72;1.70;;;;;;;15.01;62.90;99082.41;5085789;28;20220;-74
2022/05/28 04:38:24;;;;;;;2.85;1.98;;;;;;;15.00;62.37;99082.53;5085532;28;20098;-74
2022/05/28 04:40:51;;;;;;;3.90;1.83;;;;;;;14.97;62.75;99078.28;5085514;28;20086;-74
2022/05/28 04:43:19;;;;;;;3.13;2.10;;;;;;;14.18;62.28;98979.47;5085498;28;20086;-75
2022/05/28 04:45:46;;;;;;;4.32;2.17;;;;;;;13.92;62.36;98929.00;5085299;28;20060;-75
2022/05/28 04:48:15;;;;;;;3.85;2.22;;;;;;;14.86;62.86;99096.94;5085174;28;20056;-74
2022/05/28 04:50:43;;;;;;;3.80;2.90;;;;;;;14.84;62.39;99101.53;5085417;28;20047;-74
2022/05/28 04:53:10;;;;;;;4.07;2.22;;;;;;;14.81;62.52;99100.91;5085279;28;20219;-74
2022/05/28 04:55:39;;;;;;;3.10;2.13;;;;;;;14.21;62.50;99004.06;5085129;28;20056;-74
2022/05/28 04:58:07;;;;;;;2.50;1.70;;;;;;;14.79;62.59;99093.03;5085185;28;20101;-75
2022/05/28 05:00:35;;;;;;;5.88;2.50;;;;;;;14.37;62.20;99036.59;5086205;28;20122;-74
2022/05/28 05:03:02;;;;;;;2.67;1.90;;;;;;;14.12;62.27;98970.13;5085197;28;20308;-74
2022/05/28 05:05:31;;;;;;;2.63;1.73;;;;;;;14.58;62.47;99043.97;5084895;28;20060;-74
2022/05/28 05:07:58;;;;;;;3.25;1.83;;;;;;;14.51;62.25;99032.03;5085091;28;20185;-74
2022/05/28 05:10:26;;;;;;;2.78;2.00;;;;;;;14.86;62.08;99090.75;5085309;28;20110;-75
2022/05/28 05:12:53;;;;;;;2.97;2.10;;;;;;;14.83;62.16;99097.16;5085684;28;20060;-74
2022/05/28 05:15:21;;;;;;;4.35;2.63;;;;;;;14.80;61.99;99094.72;5088828;28;20056;-74
2022/05/28 05:17:48;;;;;;;4.40;2.05;;;;;;;14.82;61.94;99103.47;5088543;28;20361;-74
2022/05/28 05:20:17;;;;;;;4.85;2.20;;;;;;;14.83;62.27;99097.16;5088779;28;20109;-74
2022/05/28 05:22:46;;;;;;;4.05;1.88;;;;;;;14.85;62.37;99097.91;5088751;28;20060;-74
2022/05/28 05:25:15;;;;;;;4.10;2.55;;;;;;;14.90;62.18;99093.06;5088600;28;20094;-75
2022/05/28 05:27:43;;;;;;;3.90;2.13;;;;;;;14.89;62.22;99095.84;5088562;28;20255;-74
2022/05/28 05:30:12;;;;;;;4.15;2.17;;;;;;;14.92;62.53;99096.47;5088611;28;20098;-75
2022/05/28 05:32:39;;;;;;;2.75;1.92;;;;;;;14.72;61.96;99065.97;5088081;28;20066;-74
2022/05/28 05:35:09;;;;;;;3.70;2.35;;;;;;;14.99;62.31;99102.16;5088397;28;20060;-74
2022/05/28 05:37:42;;;;;;;3.60;2.10;;;;;;;15.00;62.35;99102.06;5088557;28;20119;-75
2022/05/28 05:40:12;;;;;;;4.45;2.35;;;;;;;14.85;62.11;99070.38;5088497;28;20356;-75
2022/05/28 05:42:40;;;;;;;3.53;2.28;;;;;;;15.12;62.15;99107.41;5088412;28;20322;-75
2022/05/28 05:45:09;;;;;;;3.35;2.33;;;;;;;15.19;61.67;99098.81;5088612;28;20059;-75
2022/05/28 05:47:36;;;;;;;3.10;2.10;;;;;;;15.24;61.29;99099.28;5087976;28;20056;-75
2022/05/28 05:50:08;;;;;;;3.83;2.38;;;;;;;14.94;61.48;99080.31;5087941;28;20056;-74
2022/05/28 05:52:39;;;;;;;3.35;1.90;;;;;;;15.23;61.30;99110.94;5088244;28;20252;-76
2022/05/28 05:55:08;;;;;;;3.33;2.10;;;;;;;15.28;61.08;99098.09;5088230;28;20332;-75
2022/05/28 05:57:37;;;;;;;3.80;2.17;;;;;;;15.31;61.22;99115.69;5087233;28;20103;-74
2022/05/28 06:00:06;;;;;;;4.35;2.35;;;;;;;15.04;61.52;99065.31;5088269;28;20080;-75
2022/05/28 06:02:33;;;;;;;2.85;2.05;;;;;;;15.37;60.92;99104.53;5088036;28;20067;-76
2022/05/28 06:05:01;;;;;;;5.55;2.58;;;;;;;15.22;60.73;99087.88;5088079;28;20106;-74
2022/05/28 06:07:28;;;;;;;2.85;2.10;;;;;;;15.41;61.11;99119.31;5087791;28;20040;-74
2022/05/28 06:09:55;;;;;;;4.43;2.30;;;;;;;15.33;60.93;99109.25;5087946;28;20037;-75
2022/05/28 06:12:23;;;;;;;3.15;2.30;;;;;;;15.32;61.05;99104.03;5087594;28;20048;-75
2022/05/28 06:14:51;;;;;;;4.15;2.35;;;;;;;15.32;61.05;99096.88;5086763;28;20056;-73
2022/05/28 06:17:18;;;;;;;5.97;2.90;;;;;;;15.36;61.17;99086.78;5087796;28;20048;-73
2022/05/28 06:19:46;;;;;;;4.63;2.10;;;;;;;15.43;60.83;99108.53;5087970;28;20114;-73
2022/05/28 06:22:13;;;;;;;3.92;2.15;;;;;;;15.41;61.13;99089.94;5087380;28;20366;-73
2022/05/28 06:24:40;;;;;;;3.47;2.47;;;;;;;14.94;60.48;99011.81;5087165;28;20324;-73
2022/05/28 06:27:08;;;;;;;5.47;4.03;;;;;;;15.52;60.79;99092.63;5087311;28;20304;-73
2022/05/28 06:29:35;;;;;;;3.20;2.47;;;;;;;15.53;60.70;99085.47;5087292;28;20106;-73
2022/05/28 06:32:04;;;;;;;3.33;2.28;;;;;;;15.55;60.87;99075.50;5086913;28;20115;-73
2022/05/28 06:34:31;;;;;;;3.72;2.45;;;;;;;15.60;60.40;99071.50;5087182;28;20057;-73
2022/05/28 06:36:58;;;;;;;4.50;3.30;;;;;;;15.66;60.30;99092.41;5086895;28;20321;-73
2022/05/28 06:39:26;;;;;;;3.00;2.30;;;;;;;14.73;60.52;98898.78;5087182;28;20118;-73
2022/05/28 06:41:54;;;;;;;4.43;2.20;;;;;;;15.77;60.15;99062.16;5086825;28;20052;-73
2022/05/28 06:44:21;;;;;;;3.22;2.40;;;;;;;15.02;59.58;98942.66;5086908;28;20092;-74
2022/05/28 06:46:48;;;;;;;14.77;3.03;;;;;;;15.88;59.50;99059.44;5086881;28;20052;-74
2022/05/28 06:49:17;;;;;;;4.28;2.42;;;;;;;11.30;58.09;98288.66;5086898;28;20060;-74
2022/05/28 06:51:44;;;;;;;4.50;2.90;;;;;;;15.68;58.42;99007.63;5087502;28;20056;-74
2022/05/28 06:54:12;;;;;;;4.10;2.35;;;;;;;16.05;58.58;99047.38;5086949;28;20052;-74
2022/05/28 06:56:39;;;;;;;6.13;1.95;;;;;;;15.83;58.06;98999.34;5086633;28;20385;-74
2022/05/28 06:59:06;;;;;;;3.50;2.30;;;;;;;15.05;58.19;98886.38;5085659;28;20197;-73
2022/05/28 07:01:37;;;;;;;3.90;2.58;;;;;;;16.08;58.29;99047.13;5087021;28;20044;-74
2022/05/28 07:04:05;;;;;;;15.98;12.70;;;;;;;16.14;57.96;99057.31;5086280;28;20118;-74
2022/05/28 07:06:34;;;;;;;9.50;7.93;;;;;;;15.34;57.76;98941.88;5085710;28;20354;-74
2022/05/28 07:09:05;;;;;;;11.07;7.60;;;;;;;15.37;57.67;98955.84;5086270;28;20049;-74
2022/05/28 07:11:32;;;;;;;11.57;9.43;;;;;;;15.95;58.21;99027.72;5085896;28;20044;-74
2022/05/28 07:13:59;;;;;;;6.20;5.00;;;;;;;16.16;57.62;99058.03;5086414;28;20057;-74
2022/05/28 07:16:26;;;;;;;5.72;4.00;;;;;;;16.20;57.19;99054.13;5086421;28;20114;-74
2022/05/28 07:18:54;;;;;;;6.22;4.20;;;;;;;16.28;56.99;99037.44;5085780;28;20162;-75
2022/05/28 07:21:21;;;;;;;7.97;3.55;;;;;;;16.34;57.21;99035.09;5086354;28;20060;-74
2022/05/28 07:23:50;;;;;;;4.53;3.13;;;;;;;16.39;56.91;99037.41;5085186;28;20109;-74
2022/05/28 07:26:19;;;;;;;6.63;3.45;;;;;;;16.45;56.69;99130.50;5085925;28;20067;-74
2022/05/28 07:28:46;;;;;;;6.47;2.78;;;;;;;16.25;56.66;98998.44;5086054;28;20052;-74
2022/05/28 07:31:15;;;;;;;5.95;3.30;;;;;;;16.44;56.14;99035.19;5085621;28;20244;-75
2022/05/28 07:33:45;;;;;;;5.40;3.47;;;;;;;15.44;56.00;98902.78;5085834;28;20056;-74
2022/05/28 07:36:15;;;;;;;6.85;3.58;;;;;;;16.46;55.66;99045.75;5085003;28;20052;-74
2022/05/28 07:38:43;;;;;;;4.68;2.95;;;;;;;16.49;55.50;99034.78;5085894;28;20312;-74
2022/05/28 07:41:14;;;;;;;5.40;2.90;;;;;;;16.51;54.62;99028.34;5084594;28;20056;-74
2022/05/28 07:43:42;;;;;;;8.65;4.38;;;;;;;16.20;54.39;98987.28;5086200;28;20040;-75
2022/05/28 07:46:14;;;;;;;5.30;3.38;;;;;;;16.49;53.66;99040.16;5085911;28;20106;-75
2022/05/28 07:48:42;;;;;;;5.70;2.78;;;;;;;16.53;54.08;99050.47;5084771;28;20063;-74
2022/05/28 07:51:09;;;;;;;6.82;3.90;;;;;;;16.53;53.94;99062.97;5085417;28;20067;-75
2022/05/28 07:53:37;;;;;;;6.32;3.38;;;;;;;16.54;53.93;99067.34;5085722;28;20052;-74
2022/05/28 07:56:06;;;;;;;6.70;4.00;;;;;;;16.57;52.96;99062.59;5085501;28;20057;-74
2022/05/28 07:58:35;;;;;;;6.32;3.67;;;;;;;16.43;52.47;99014.75;5085772;28;20052;-74
2022/05/28 08:01:04;;;;;;;6.53;3.80;;;;;;;16.92;52.71;99061.44;5085805;28;20052;-75
2022/05/28 08:03:33;;;;;;;7.05;3.75;;;;;;;17.00;52.06;99070.53;5085463;28;20068;-74
2022/05/28 08:06:01;;;;;;;9.93;5.07;;;;;;;17.05;51.59;99083.50;5085762;28;20089;-74
2022/05/28 08:08:29;;;;;;;8.70;3.90;;;;;;;17.01;51.60;99076.72;5085469;28;20064;-75
2022/05/28 08:10:56;;;;;;;9.25;4.18;;;;;;;16.82;51.53;99048.00;5085595;28;20052;-75
2022/05/28 08:13:25;;;;;;;5.82;3.63;;;;;;;16.72;50.88;99036.41;5085537;28;20059;-75
2022/05/28 08:15:55;;;;;;;7.13;4.00;;;;;;;16.68;50.75;99043.00;5085635;28;20047;-74
2022/05/28 08:18:25;;;;;;;8.18;4.90;;;;;;;16.93;51.15;99096.13;5085314;28;20056;-74
2022/05/28 08:23:40;;;;;;;5.65;3.92;;;;;;;16.94;51.14;99096.97;5085596;28;20094;-74
2022/05/28 08:26:07;;;;;;;5.75;3.95;;;;;;;16.99;50.38;99095.59;5085335;28;20063;-75
2022/05/28 08:28:36;;;;;;;6.30;4.40;;;;;;;17.04;49.59;99094.34;5084880;28;20040;-74
2022/05/28 08:31:06;;;;;;;4.85;3.55;;;;;;;17.10;49.60;99096.50;5085265;28;20044;-75
2022/05/28 08:33:35;;;;;;;5.18;3.10;;;;;;;17.16;49.79;99094.16;5085135;28;20068;-75
2022/05/28 08:36:03;;;;;;;5.20;3.40;;;;;;;17.25;49.84;99098.72;5084933;28;20068;-75
2022/05/28 08:38:32;;;;;;;6.32;3.28;;;;;;;17.26;48.87;99091.56;5085070;28;20059;-75
2022/05/28 08:41:04;;;;;;;7.07;3.15;;;;;;;17.29;48.14;99093.97;5084948;28;20067;-75
2022/05/28 08:43:34;;;;;;;6.28;3.03;;;;;;;17.34;49.36;99093.56;5084127;28;20273;-75
2022/05/28 08:46:02;;;;;;;6.05;3.38;;;;;;;17.11;48.43;99052.69;5085318;28;20056;-75
2022/05/28 08:48:35;;;;;;;5.32;3.63;;;;;;;17.27;47.07;99080.69;5087054;28;20063;-75
2022/05/28 08:51:07;;;;;;;5.57;2.87;;;;;;;17.43;47.75;99088.25;5089025;28;20067;-75
2022/05/28 08:53:40;;;;;;;8.30;5.13;;;;;;;16.71;47.55;98959.78;5089441;28;20067;-74
2022/05/28 08:56:09;;;;;;;6.90;3.80;;;;;;;17.56;47.73;99093.38;5089113;28;20053;-75
2022/05/28 08:58:39;;;;;;;6.95;3.78;;;;;;;17.61;47.18;99088.50;5088662;28;20049;-75
2022/05/28 09:01:15;;;;;;;5.60;3.58;;;;;;;17.61;46.46;99088.50;5088938;28;20052;-74
2022/05/28 09:03:50;;;;;;;5.18;2.83;;;;;;;17.66;45.65;99105.00;5088688;28;20329;-75
2022/05/28 09:06:23;;;;;;;5.82;3.53;;;;;;;17.71;47.26;99093.88;5088710;28;20053;-74
2022/05/28 09:08:53;;;;;;;9.85;3.75;;;;;;;17.76;47.85;99095.19;5088460;28;20255;-75
2022/05/28 09:11:29;;;;;;;9.25;4.10;;;;;;;17.80;46.31;99093.91;5088609;28;20056;-74
2022/05/28 09:13:57;;;;;;;10.20;3.88;;;;;;;17.65;46.83;99052.41;5088167;28;20063;-74
2022/05/28 09:16:28;;;;;;;7.88;3.53;;;;;;;17.94;45.83;99084.63;5088576;28;20331;-75
2022/05/28 09:19:02;;;;;;;8.70;5.07;;;;;;;18.08;45.37;99080.72;5088097;28;20052;-74
2022/05/28 09:21:30;;;;;;;7.32;2.65;;;;;;;18.02;45.79;99081.28;5088498;28;20065;-73
2022/05/28 09:24:03;;;;;;;4.28;2.58;;;;;;;17.14;45.39;98972.09;5088428;28;20063;-74
2022/05/28 09:26:35;;;;;;;7.53;3.33;;;;;;;18.04;46.46;99069.41;5088370;28;20048;-73
2022/05/28 09:29:17;;;;;;;3.80;2.83;;;;;;;18.11;45.02;99078.59;5088121;28;20052;-75
2022/05/28 09:31:56;;;;;;;4.63;2.42;;;;;;;18.07;44.84;99065.63;5087787;28;20110;-74
2022/05/28 09:34:37;;;;;;;9.93;2.45;;;;;;;17.82;45.12;99019.56;5088355;28;20052;-73
2022/05/28 09:37:17;;;;;;;7.35;2.78;;;;;;;18.26;44.00;99055.75;5088275;28;20052;-74
2022/05/28 09:39:54;;;;;;;6.22;2.60;;;;;;;18.41;44.84;99055.34;5088223;28;20102;-74
2022/05/28 09:42:33;;;;;;;6.25;2.70;;;;;;;18.58;44.61;99057.34;5087999;28;20053;-73
2022/05/28 09:45:14;;;;;;;3.33;2.15;;;;;;;18.74;43.78;99048.69;5087589;28;20309;-74
2022/05/28 09:47:48;;;;;;;4.30;2.47;;;;;;;18.79;43.55;99073.28;5087649;28;20063;-74
2022/05/28 09:50:24;;;;;;;4.97;2.63;;;;;;;18.51;43.02;99054.34;5087658;28;20056;-74
2022/05/28 09:55:54;;;;;;;4.47;2.30;;;;;;;17.66;44.11;98919.25;5087662;28;20170;-74
2022/05/28 09:58:24;;;;;;;6.32;3.03;;;;;;;18.45;45.18;99078.22;5087536;28;20052;-74
2022/05/28 10:00:52;;;;;;;4.85;2.63;;;;;;;18.52;46.17;99052.53;5087321;28;20052;-74
2022/05/28 10:06:22;;;;;;;5.78;3.03;;;;;;;18.35;45.85;99050.53;5063340;28;20052;-74
2022/05/28 10:08:49;;;;;;;5.47;2.60;;;;;;;18.49;45.64;99053.63;5086859;28;20109;-74
2022/05/28 10:11:19;;;;;;;8.10;5.07;;;;;;;18.47;44.82;99052.09;5086966;28;20057;-74
2022/05/28 10:13:48;;;;;;;6.50;3.13;;;;;;;18.44;45.48;99055.91;5087291;28;20127;-74
2022/05/28 10:16:19;;;;;;;4.55;2.85;;;;;;;18.47;44.99;99057.44;5087037;28;20083;-74
2022/05/28 10:18:53;;;;;;;4.30;2.10;;;;;;;18.39;44.49;99051.94;5087090;28;20321;-74
2022/05/28 10:21:28;;;;;;;;;;;;;;;18.33;43.87;99048.00;5087432;28;20056;-74
2022/05/28 10:24:00;;;;;;;8.80;2.40;;;;;;;13.77;45.33;98315.81;5087290;28;20161;-74
2022/05/28 10:26:32;;;;;;;4.63;1.77;;;;;;;18.14;44.95;99035.41;5087277;28;20052;-74
2022/05/28 10:29:03;;;;;;;4.45;2.63;;;;;;;17.55;44.77;98923.72;5087149;28;20258;-74
2022/05/28 10:31:33;;;;;;;7.22;2.78;;;;;;;18.30;45.48;99029.50;5086394;28;20060;-74
2022/05/28 10:34:01;;;;;;;6.13;2.83;;;;;;;18.24;45.23;99030.06;5087009;28;20056;-74
2022/05/28 10:36:33;;;;;;;5.60;2.30;;;;;;;18.17;44.86;99037.81;5086707;28;20056;-74
2022/05/28 10:39:09;;;;;;;4.95;2.25;;;;;;;18.39;44.30;99030.47;5086562;28;20308;-74
2022/05/28 10:41:37;;;;;;;4.28;2.53;;;;;;;18.49;44.80;99026.81;5087035;28;20057;-74
2022/05/28 10:44:05;;;;;;;3.85;1.63;;;;;;;18.56;44.53;99029.78;5086676;28;20050;-74
2022/05/28 10:46:44;;;;;;;8.52;2.67;;;;;;;17.85;42.06;98898.66;5086621;28;20056;-74
2022/05/28 10:49:24;;;;;;;5.60;2.25;;;;;;;18.67;41.88;99020.72;5086735;28;20049;-74
2022/05/28 10:52:00;;;;;;;4.68;1.80;;;;;;;18.44;40.76;98982.59;5086821;28;20312;-74
2022/05/28 10:54:43;;;;;;;2.90;2.00;;;;;;;18.59;39.78;99019.63;5086474;28;20056;-74
2022/05/28 10:57:43;;;;;;;4.32;2.20;;;;;;;18.57;39.84;99035.00;5086426;28;20330;-74
2022/05/28 11:00:15;;;;;;;3.88;2.03;;;;;;;17.76;41.11;98890.63;5012731;28;20050;-74
2022/05/28 11:03:11;;;;;;;3.75;1.80;;;;;;;18.40;40.03;99014.25;5086341;28;20052;-74
2022/05/28 11:06:02;;;;;;;4.55;3.00;;;;;;;18.34;40.26;99005.91;5086370;28;20103;-75
2022/05/28 11:08:41;;;;;;;5.25;2.47;;;;;;;18.33;40.47;99023.00;5086354;28;20056;-74
2022/05/28 11:11:23;;;;;;;4.18;2.00;;;;;;;18.18;40.74;99019.91;5085054;28;20050;-74
2022/05/28 11:14:03;;;;;;;3.80;2.03;;;;;;;18.12;41.25;99012.41;5086201;28;20251;-74
2022/05/28 11:16:53;;;;;;;5.18;2.38;;;;;;;18.05;41.48;99022.00;5086241;28;20056;-74
2022/05/28 11:19:44;;;;;;;3.83;2.38;;;;;;;17.76;41.03;98987.13;5086006;28;20045;-74
2022/05/28 11:22:36;;;;;;;2.83;1.75;;;;;;;17.91;41.74;99025.94;5085883;28;20053;-74
2022/05/28 11:25:12;;;;;;;2.72;1.85;;;;;;;17.83;42.12;99021.28;5086221;28;20056;-74
2022/05/28 11:27:46;;;;;;;2.45;1.80;;;;;;;17.81;43.29;99009.00;5085775;28;20101;-73
2022/05/28 11:30:18;;;;;;;4.85;2.08;;;;;;;17.77;44.19;99011.09;5085678;28;20312;-74
2022/05/28 11:32:49;;;;;;;3.78;2.15;;;;;;;17.71;43.96;99017.00;5085668;28;20056;-74
2022/05/28 11:35:24;;;;;;;4.28;2.42;;;;;;;16.50;43.75;98817.16;5086164;28;20056;-74
2022/05/28 11:37:55;;;;;;;3.13;1.83;;;;;;;17.55;44.06;99006.78;5085914;28;20255;-73
2022/05/28 11:40:28;;;;;;;4.78;2.70;;;;;;;17.59;44.26;99005.53;5086057;28;20052;-75
2022/05/28 11:43:03;;;;;;;4.30;2.05;;;;;;;17.55;43.93;99014.81;5085928;28;20114;-75
2022/05/28 11:45:44;;;;;;;3.67;2.05;;;;;;;17.46;44.87;99017.47;5085594;28;20308;-75
2022/05/28 11:48:18;;;;;;;4.10;1.90;;;;;;;17.43;45.12;99023.09;5085624;28;20052;-75
2022/05/28 11:53:41;;;;;;;5.95;3.72;;;;;;;17.41;46.74;99020.56;5086022;28;20044;-72
2022/05/28 11:56:15;;;;;;;5.10;1.63;;;;;;;17.41;46.61;99014.34;5085760;28;20098;-73
2022/05/28 11:58:46;;;;;;;3.88;1.98;;;;;;;17.39;46.59;99019.00;5085769;28;20117;-73
2022/05/28 12:01:19;;;;;;;5.25;2.50;;;;;;;17.37;46.93;99029.00;5085916;28;20048;-73
2022/05/28 12:03:47;;;;;;;14.82;6.72;;;;;;;17.35;46.96;99143.47;5085237;28;20102;-73